createdAt,value
2023-03-22T00:00:15.508Z,27.50
2023-03-22T00:02:43.261Z,28.48
2023-03-22T00:05:10.574Z,29.05
2023-03-22T00:07:38.020Z,27.23
2023-03-22T00:10:06.575Z,26.95
2023-03-22T00:12:33.848Z,30.45
2023-03-22T00:15:01.120Z,28.70
2023-03-22T00:17:28.517Z,28.55
2023-03-22T00:19:55.781Z,25.77
2023-03-22T00:22:24.508Z,30.13
2023-03-22T00:24:51.790Z,28.63
2023-03-22T00:27:19.062Z,28.83
2023-03-22T00:29:46.361Z,29.23
2023-03-22T00:32:13.781Z,29.90
2023-03-22T00:34:41.111Z,29.80
2023-03-22T00:37:09.586Z,28.73
2023-03-22T00:39:36.954Z,27.80
2023-03-22T00:42:06.662Z,30.02
2023-03-22T00:44:34.334Z,28.85
2023-03-22T00:47:01.798Z,30.10
2023-03-22T00:49:30.738Z,29.30
2023-03-22T00:51:58.400Z,30.13
2023-03-22T00:54:25.873Z,32.13
2023-03-22T00:56:53.424Z,29.33
2023-03-22T00:59:21.451Z,32.28
2023-03-22T01:01:48.795Z,32.75
2023-03-22T01:04:18.199Z,31.33
2023-03-22T01:06:47.064Z,30.70
2023-03-22T01:09:15.093Z,31.20
2023-03-22T01:11:44.041Z,31.58
2023-03-22T01:14:13.975Z,30.35
2023-03-22T01:16:41.466Z,28.73
2023-03-22T01:19:09.245Z,29.88
2023-03-22T01:21:36.933Z,32.65
2023-03-22T01:24:04.792Z,31.27
2023-03-22T01:26:32.198Z,31.55
2023-03-22T01:28:59.567Z,30.65
2023-03-22T01:31:27.428Z,31.73
2023-03-22T01:33:54.826Z,31.00
2023-03-22T01:38:50.852Z,28.77
2023-03-22T01:41:18.870Z,29.45
2023-03-22T01:44:14.274Z,28.80
2023-03-22T01:46:44.597Z,30.90
2023-03-22T01:49:32.961Z,27.52
2023-03-22T01:52:11.421Z,31.60
2023-03-22T01:55:14.207Z,28.48
2023-03-22T01:57:46.612Z,27.73
2023-03-22T02:00:22.521Z,30.27
2023-03-22T02:04:03.571Z,29.83
2023-03-22T02:06:32.396Z,29.92
2023-03-22T02:09:11.122Z,28.38
2023-03-22T02:11:43.842Z,31.48
2023-03-22T02:14:58.712Z,30.40
2023-03-22T02:18:23.530Z,28.30
2023-03-22T02:21:32.555Z,29.20
2023-03-22T02:24:38.463Z,30.58
2023-03-22T02:27:32.706Z,29.27
2023-03-22T02:30:59.836Z,30.27
2023-03-22T02:33:59.767Z,31.75
2023-03-22T02:37:24.039Z,28.27
2023-03-22T02:40:24.408Z,28.85
2023-03-22T02:43:38.652Z,30.17
2023-03-22T02:46:18.955Z,29.73
2023-03-22T02:49:14.663Z,28.00
2023-03-22T02:51:51.544Z,26.63
2023-03-22T02:54:28.738Z,29.38
2023-03-22T02:57:22.935Z,29.23
2023-03-22T02:59:52.390Z,27.60
2023-03-22T03:02:21.759Z,29.60
2023-03-22T03:04:52.116Z,29.90
2023-03-22T03:07:25.799Z,26.33
2023-03-22T03:09:53.974Z,27.83
2023-03-22T03:14:55.292Z,25.83
2023-03-22T03:18:04.755Z,29.15
2023-03-22T03:21:07.425Z,30.60
2023-03-22T03:24:06.146Z,29.73
2023-03-22T03:27:14.987Z,27.25
2023-03-22T03:30:20.590Z,25.33
2023-03-22T03:33:15.322Z,26.08
2023-03-22T03:35:59.956Z,28.20
2023-03-22T03:38:32.374Z,29.75
2023-03-22T03:41:05.382Z,31.50
2023-03-22T03:43:34.669Z,30.70
2023-03-22T03:46:03.183Z,30.00
2023-03-22T03:51:02.312Z,30.05
2023-03-22T03:53:30.992Z,29.10
2023-03-22T03:58:30.646Z,27.58
2023-03-22T04:00:58.070Z,29.40
2023-03-22T04:03:34.624Z,28.52
2023-03-22T04:06:13.676Z,28.30
2023-03-22T04:08:45.877Z,30.27
2023-03-22T04:11:16.021Z,29.10
2023-03-22T04:13:46.477Z,28.75
2023-03-22T04:16:19.752Z,33.90
2023-03-22T04:18:46.933Z,30.20
2023-03-22T04:21:16.385Z,30.45
2023-03-22T04:24:04.464Z,28.35
2023-03-22T04:26:36.723Z,31.30
2023-03-22T04:29:22.950Z,31.48
2023-03-22T04:31:54.215Z,30.52
2023-03-22T04:34:47.434Z,29.20
2023-03-22T04:37:18.436Z,32.83
2023-03-22T04:40:09.485Z,31.60
2023-03-22T04:42:48.467Z,29.80
2023-03-22T04:45:23.895Z,32.10
2023-03-22T04:47:56.893Z,30.75
2023-03-22T04:50:24.330Z,31.52
2023-03-22T04:52:58.423Z,30.58
2023-03-22T04:55:27.566Z,30.50
2023-03-22T04:57:54.884Z,31.70
2023-03-22T05:00:24.127Z,27.85
2023-03-22T05:02:52.246Z,30.17
2023-03-22T05:05:34.404Z,28.73
2023-03-22T05:08:03.367Z,32.53
2023-03-22T05:10:31.069Z,28.25
2023-03-22T05:12:58.859Z,29.90
2023-03-22T05:15:32.571Z,29.77
2023-03-22T05:20:28.476Z,26.65
2023-03-22T05:23:09.747Z,28.33
2023-03-22T05:25:38.291Z,29.30
2023-03-22T05:28:07.042Z,28.63
2023-03-22T05:30:44.053Z,29.88
2023-03-22T05:33:23.188Z,30.95
2023-03-22T05:35:54.643Z,29.35
2023-03-22T05:38:25.479Z,30.95
2023-03-22T05:40:55.631Z,28.33
2023-03-22T05:43:22.872Z,28.08
2023-03-22T05:45:51.686Z,29.45
2023-03-22T05:48:37.881Z,28.88
2023-03-22T05:51:17.377Z,26.77
2023-03-22T05:56:24.475Z,25.92
2023-03-22T05:58:58.095Z,26.70
2023-03-22T06:01:25.582Z,27.73
2023-03-22T06:04:10.932Z,27.73
2023-03-22T06:06:53.846Z,27.55
2023-03-22T06:09:44.720Z,28.30
2023-03-22T06:12:17.217Z,28.17
2023-03-22T06:14:49.132Z,28.48
2023-03-22T06:17:37.757Z,27.92
2023-03-22T06:20:11.421Z,27.65
2023-03-22T06:22:41.817Z,25.27
2023-03-22T06:25:11.017Z,27.33
2023-03-22T06:27:42.870Z,30.13
2023-03-22T06:30:10.815Z,26.67
2023-03-22T06:33:00.465Z,29.50
2023-03-22T06:35:28.179Z,29.02
2023-03-22T06:37:55.560Z,27.73
2023-03-22T06:40:22.729Z,27.48
2023-03-22T06:42:49.917Z,25.58
2023-03-22T06:45:19.178Z,26.02
2023-03-22T06:47:46.761Z,30.77
2023-03-22T06:50:24.542Z,27.48
2023-03-22T06:53:02.310Z,28.33
2023-03-22T06:55:33.254Z,27.42
2023-03-22T06:58:02.231Z,26.48
2023-03-22T07:00:29.912Z,29.42
2023-03-22T07:02:58.960Z,26.83
2023-03-22T07:05:35.344Z,25.98
2023-03-22T07:08:03.879Z,26.45
2023-03-22T07:10:31.667Z,28.17
2023-03-22T07:12:58.987Z,27.67
2023-03-22T07:15:27.112Z,26.75
2023-03-22T07:18:01.277Z,26.63
2023-03-22T07:20:29.220Z,27.35
2023-03-22T07:22:57.434Z,26.77
2023-03-22T07:25:27.796Z,27.73
2023-03-22T07:28:06.860Z,29.70
2023-03-22T07:30:37.241Z,32.58
2023-03-22T07:33:07.013Z,29.33
2023-03-22T07:35:36.594Z,28.85
2023-03-22T07:38:06.479Z,31.38
2023-03-22T07:40:34.318Z,30.58
2023-03-22T07:43:01.985Z,29.33
2023-03-22T07:45:42.055Z,29.80
2023-03-22T07:48:28.841Z,31.05
2023-03-22T07:51:14.896Z,30.35
2023-03-22T07:53:42.674Z,31.38
2023-03-22T07:56:10.251Z,31.77
2023-03-22T07:58:37.556Z,28.58
2023-03-22T08:01:09.909Z,27.58
2023-03-22T08:03:50.958Z,31.45
2023-03-22T08:06:33.054Z,29.17
2023-03-22T08:09:01.200Z,33.65
2023-03-22T08:11:28.488Z,30.58
2023-03-22T08:13:56.247Z,30.35
2023-03-22T08:16:23.679Z,31.50
2023-03-22T08:18:51.007Z,33.58
2023-03-22T08:21:18.537Z,33.33
2023-03-22T08:23:51.188Z,28.75
2023-03-22T08:26:45.961Z,32.40
2023-03-22T08:29:23.054Z,35.55
2023-03-22T08:31:51.838Z,32.72
2023-03-22T08:34:19.167Z,32.40
2023-03-22T08:36:46.418Z,34.13
2023-03-22T08:39:13.984Z,33.78
2023-03-22T08:41:48.669Z,33.90
2023-03-22T08:44:16.148Z,35.63
2023-03-22T08:46:43.371Z,33.50
2023-03-22T08:49:11.014Z,30.25
2023-03-22T08:51:47.231Z,33.70
2023-03-22T08:54:34.815Z,35.20
2023-03-22T08:57:03.403Z,34.22
2023-03-22T08:59:45.983Z,34.15
2023-03-22T09:02:22.278Z,30.50
2023-03-22T09:04:49.759Z,34.50
2023-03-22T09:07:20.208Z,33.60
2023-03-22T09:09:55.958Z,31.52
2023-03-22T09:12:25.107Z,35.30
2023-03-22T09:14:52.488Z,34.03
2023-03-22T09:17:22.059Z,34.40
2023-03-22T09:19:55.610Z,32.80
2023-03-22T09:22:28.131Z,34.85
2023-03-22T09:24:55.458Z,35.63
2023-03-22T09:27:22.804Z,32.72
2023-03-22T09:29:52.467Z,31.98
2023-03-22T09:32:19.810Z,35.53
2023-03-22T09:34:54.650Z,33.15
2023-03-22T09:37:22.694Z,33.90
2023-03-22T09:39:55.273Z,35.95
2023-03-22T09:42:40.149Z,32.75
2023-03-22T09:45:43.231Z,32.90
2023-03-22T09:48:38.308Z,34.38
2023-03-22T09:51:37.960Z,33.28
2023-03-22T09:54:40.873Z,32.63
2023-03-22T09:57:29.274Z,33.60
2023-03-22T10:00:16.484Z,35.67
2023-03-22T10:02:53.785Z,33.72
2023-03-22T10:05:45.209Z,35.65
2023-03-22T10:08:49.353Z,35.53
2023-03-22T10:11:30.618Z,33.42
2023-03-22T10:14:33.288Z,36.83
2023-03-22T10:17:10.458Z,33.00
2023-03-22T10:20:29.053Z,34.22
2023-03-22T10:22:59.053Z,32.95
2023-03-22T10:25:37.557Z,35.10
2023-03-22T10:28:30.407Z,34.60
2023-03-22T10:33:50.229Z,35.47
2023-03-22T10:36:22.325Z,32.17
2023-03-22T10:39:27.071Z,35.10
2023-03-22T10:41:58.159Z,36.13
2023-03-22T10:44:28.994Z,32.88
2023-03-22T10:47:00.271Z,30.80
2023-03-22T10:49:40.022Z,33.22
2023-03-22T10:52:43.257Z,30.50
2023-03-22T10:55:15.286Z,31.88
2023-03-22T10:58:10.981Z,32.85
2023-03-22T11:00:53.718Z,35.17
2023-03-22T11:03:38.243Z,33.05
2023-03-22T11:06:32.852Z,31.58
2023-03-22T11:09:12.446Z,30.85
2023-03-22T11:11:54.570Z,31.83
2023-03-22T11:14:37.820Z,31.40
2023-03-22T11:17:14.047Z,30.45
2023-03-22T11:19:55.974Z,28.80
2023-03-22T11:22:47.183Z,30.10
2023-03-22T11:25:22.261Z,31.75
2023-03-22T11:28:21.611Z,27.83
2023-03-22T11:31:25.968Z,28.27
2023-03-22T11:34:02.158Z,25.67
2023-03-22T11:36:30.305Z,27.85
2023-03-22T11:41:37.771Z,24.98
2023-03-22T11:44:16.024Z,28.85
2023-03-22T11:47:03.050Z,26.90
2023-03-22T11:49:50.863Z,28.63
2023-03-22T11:52:26.179Z,27.38
2023-03-22T11:54:55.320Z,26.77
2023-03-22T11:57:34.004Z,24.65
2023-03-22T12:00:26.097Z,22.77
2023-03-22T12:03:20.468Z,23.40
2023-03-22T12:05:51.252Z,28.70
2023-03-22T12:08:45.895Z,24.98
2023-03-22T12:11:40.250Z,25.35
2023-03-22T12:14:24.253Z,23.30
2023-03-22T12:17:05.477Z,22.20
2023-03-22T12:20:07.929Z,23.08
2023-03-22T12:22:43.092Z,23.15
2023-03-22T12:25:21.043Z,21.20
2023-03-22T12:27:58.278Z,23.60
2023-03-22T12:30:51.475Z,22.08
2023-03-22T12:33:31.161Z,23.05
2023-03-22T12:36:04.239Z,20.00
2023-03-22T12:38:48.303Z,21.90
2023-03-22T12:41:38.162Z,20.75
2023-03-22T12:44:11.295Z,20.02
2023-03-22T12:46:58.241Z,19.77
2023-03-22T12:49:45.706Z,18.80
2023-03-22T12:52:28.054Z,18.80
2023-03-22T12:57:29.045Z,20.85
2023-03-22T13:00:05.276Z,20.70
2023-03-22T13:02:35.253Z,21.02
2023-03-22T13:05:06.906Z,19.48
2023-03-22T13:08:05.548Z,16.95
2023-03-22T13:10:32.877Z,16.05
2023-03-22T13:13:24.256Z,17.00
2023-03-22T13:16:09.488Z,16.50
2023-03-22T13:18:37.621Z,16.15
2023-03-22T13:21:19.170Z,15.45
2023-03-22T13:24:13.278Z,18.38
2023-03-22T13:26:47.116Z,17.10
2023-03-22T13:29:34.292Z,17.15
2023-03-22T13:32:29.857Z,14.05
2023-03-22T13:34:57.481Z,16.38
2023-03-22T13:37:47.787Z,15.13
2023-03-22T13:40:36.370Z,17.08
2023-03-22T13:43:27.416Z,17.13
2023-03-22T13:46:17.686Z,16.20
2023-03-22T13:48:48.653Z,18.42
2023-03-22T13:51:31.971Z,13.77
2023-03-22T13:54:16.279Z,13.35
2023-03-22T13:57:00.709Z,14.02
2023-03-22T13:59:27.959Z,13.68
2023-03-22T14:02:33.671Z,12.98
2023-03-22T14:05:14.740Z,15.38
2023-03-22T14:07:56.601Z,13.50
2023-03-22T14:10:52.065Z,11.75
2023-03-22T14:13:46.912Z,11.95
2023-03-22T14:16:44.714Z,11.75
2023-03-22T14:19:25.733Z,12.18
